sensor_id;sensor_type;location;lat;lon;timestamp;P1;durP1;ratioP1;P2;durP2;ratioP2
65706;SDS011;52423;43.512;5.220;2024-02-15T00:00:09;10.68;;;9.48;;
65706;SDS011;52423;43.512;5.220;2024-02-15T00:02:35;12.23;;;11.02;;
65706;SDS011;52423;43.512;5.220;2024-02-15T00:05:00;12.85;;;11.65;;
65706;SDS011;52423;43.512;5.220;2024-02-15T00:07:26;11.52;;;10.32;;
65706;SDS011;52423;43.512;5.220;2024-02-15T00:09:51;12.05;;;10.23;;
65706;SDS011;52423;43.512;5.220;2024-02-15T00:12:18;13.30;;;12.35;;
65706;SDS011;52423;43.512;5.220;2024-02-15T00:14:44;10.52;;;9.63;;
65706;SDS011;52423;43.512;5.220;2024-02-15T00:17:09;10.65;;;9.65;;
65706;SDS011;52423;43.512;5.220;2024-02-15T00:19:36;10.00;;;9.02;;
65706;SDS011;52423;43.512;5.220;2024-02-15T00:22:04;9.45;;;8.48;;
65706;SDS011;52423;43.512;5.220;2024-02-15T00:24:30;9.13;;;8.15;;
65706;SDS011;52423;43.512;5.220;2024-02-15T00:26:56;10.77;;;6.28;;
65706;SDS011;52423;43.512;5.220;2024-02-15T00:29:21;8.93;;;8.02;;
65706;SDS011;52423;43.512;5.220;2024-02-15T00:31:47;9.95;;;8.82;;
65706;SDS011;52423;43.512;5.220;2024-02-15T00:34:12;10.80;;;9.73;;
65706;SDS011;52423;43.512;5.220;2024-02-15T00:36:38;8.55;;;7.70;;
65706;SDS011;52423;43.512;5.220;2024-02-15T00:39:06;10.40;;;9.40;;
65706;SDS011;52423;43.512;5.220;2024-02-15T00:41:33;9.13;;;7.50;;
65706;SDS011;52423;43.512;5.220;2024-02-15T00:43:59;10.05;;;9.13;;
65706;SDS011;52423;43.512;5.220;2024-02-15T00:46:24;9.77;;;8.82;;
65706;SDS011;52423;43.512;5.220;2024-02-15T00:48:54;10.27;;;9.43;;
65706;SDS011;52423;43.512;5.220;2024-02-15T00:51:20;9.00;;;8.00;;
65706;SDS011;52423;43.512;5.220;2024-02-15T00:53:45;8.70;;;7.90;;
65706;SDS011;52423;43.512;5.220;2024-02-15T00:56:10;8.02;;;7.05;;
65706;SDS011;52423;43.512;5.220;2024-02-15T00:58:36;8.88;;;7.65;;
65706;SDS011;52423;43.512;5.220;2024-02-15T01:01:02;8.90;;;5.18;;
65706;SDS011;52423;43.512;5.220;2024-02-15T01:03:27;10.30;;;6.65;;
65706;SDS011;52423;43.512;5.220;2024-02-15T01:05:53;8.70;;;7.57;;
65706;SDS011;52423;43.512;5.220;2024-02-15T01:08:18;9.68;;;8.68;;
65706;SDS011;52423;43.512;5.220;2024-02-15T01:10:45;10.40;;;7.75;;
65706;SDS011;52423;43.512;5.220;2024-02-15T01:13:10;9.73;;;8.85;;
65706;SDS011;52423;43.512;5.220;2024-02-15T01:15:37;8.93;;;8.23;;
65706;SDS011;52423;43.512;5.220;2024-02-15T01:18:04;9.90;;;8.98;;
65706;SDS011;52423;43.512;5.220;2024-02-15T01:20:29;8.75;;;7.80;;
65706;SDS011;52423;43.512;5.220;2024-02-15T01:22:55;8.88;;;8.05;;
65706;SDS011;52423;43.512;5.220;2024-02-15T01:25:21;9.90;;;8.00;;
65706;SDS011;52423;43.512;5.220;2024-02-15T01:27:46;9.05;;;7.38;;
65706;SDS011;52423;43.512;5.220;2024-02-15T01:30:13;8.10;;;6.57;;
65706;SDS011;52423;43.512;5.220;2024-02-15T01:32:38;7.55;;;6.10;;
65706;SDS011;52423;43.512;5.220;2024-02-15T01:35:07;7.60;;;6.82;;
65706;SDS011;52423;43.512;5.220;2024-02-15T01:37:35;7.65;;;6.30;;
65706;SDS011;52423;43.512;5.220;2024-02-15T01:40:01;6.70;;;6.05;;
65706;SDS011;52423;43.512;5.220;2024-02-15T01:42:27;8.05;;;4.88;;
65706;SDS011;52423;43.512;5.220;2024-02-15T01:44:52;10.93;;;9.93;;
65706;SDS011;52423;43.512;5.220;2024-02-15T01:47:17;8.77;;;7.97;;
65706;SDS011;52423;43.512;5.220;2024-02-15T01:49:47;6.95;;;6.28;;
65706;SDS011;52423;43.512;5.220;2024-02-15T01:52:14;7.07;;;6.47;;
65706;SDS011;52423;43.512;5.220;2024-02-15T01:54:42;9.50;;;8.48;;
65706;SDS011;52423;43.512;5.220;2024-02-15T01:57:07;6.72;;;6.07;;
65706;SDS011;52423;43.512;5.220;2024-02-15T01:59:33;8.38;;;7.68;;
65706;SDS011;52423;43.512;5.220;2024-02-15T02:01:59;7.65;;;7.05;;
65706;SDS011;52423;43.512;5.220;2024-02-15T02:04:25;8.30;;;7.53;;
65706;SDS011;52423;43.512;5.220;2024-02-15T02:06:50;5.53;;;4.22;;
65706;SDS011;52423;43.512;5.220;2024-02-15T02:09:20;6.57;;;5.95;;
65706;SDS011;52423;43.512;5.220;2024-02-15T02:11:47;7.22;;;5.63;;
65706;SDS011;52423;43.512;5.220;2024-02-15T02:14:13;9.63;;;5.32;;
65706;SDS011;52423;43.512;5.220;2024-02-15T02:16:38;6.43;;;4.45;;
65706;SDS011;52423;43.512;5.220;2024-02-15T02:19:04;5.22;;;4.68;;
65706;SDS011;52423;43.512;5.220;2024-02-15T02:21:34;6.63;;;5.18;;
65706;SDS011;52423;43.512;5.220;2024-02-15T02:24:00;5.45;;;4.93;;
65706;SDS011;52423;43.512;5.220;2024-02-15T02:26:28;5.88;;;3.50;;
65706;SDS011;52423;43.512;5.220;2024-02-15T02:28:54;4.40;;;3.00;;
65706;SDS011;52423;43.512;5.220;2024-02-15T02:31:20;4.78;;;3.88;;
65706;SDS011;52423;43.512;5.220;2024-02-15T02:36:17;4.50;;;4.10;;
65706;SDS011;52423;43.512;5.220;2024-02-15T02:38:43;6.97;;;4.60;;
65706;SDS011;52423;43.512;5.220;2024-02-15T02:41:10;4.68;;;4.28;;
65706;SDS011;52423;43.512;5.220;2024-02-15T02:43:36;7.20;;;5.03;;
65706;SDS011;52423;43.512;5.220;2024-02-15T02:46:02;5.30;;;3.85;;
65706;SDS011;52423;43.512;5.220;2024-02-15T02:48:30;5.60;;;4.82;;
65706;SDS011;52423;43.512;5.220;2024-02-15T02:50:56;7.18;;;5.40;;
65706;SDS011;52423;43.512;5.220;2024-02-15T02:53:22;6.18;;;5.72;;
65706;SDS011;52423;43.512;5.220;2024-02-15T02:55:48;5.05;;;4.55;;
65706;SDS011;52423;43.512;5.220;2024-02-15T02:58:14;6.72;;;6.10;;
65706;SDS011;52423;43.512;5.220;2024-02-15T03:00:39;7.40;;;5.22;;
65706;SDS011;52423;43.512;5.220;2024-02-15T03:03:05;6.60;;;4.60;;
65706;SDS011;52423;43.512;5.220;2024-02-15T03:05:30;5.80;;;4.30;;
65706;SDS011;52423;43.512;5.220;2024-02-15T03:07:56;6.35;;;5.90;;
65706;SDS011;52423;43.512;5.220;2024-02-15T03:10:21;5.88;;;5.18;;
65706;SDS011;52423;43.512;5.220;2024-02-15T03:12:49;5.93;;;4.10;;
65706;SDS011;52423;43.512;5.220;2024-02-15T03:15:14;5.78;;;3.65;;
65706;SDS011;52423;43.512;5.220;2024-02-15T03:17:40;4.55;;;4.15;;
65706;SDS011;52423;43.512;5.220;2024-02-15T03:20:07;4.95;;;4.40;;
65706;SDS011;52423;43.512;5.220;2024-02-15T03:22:37;5.38;;;4.93;;
65706;SDS011;52423;43.512;5.220;2024-02-15T03:25:06;5.28;;;4.15;;
65706;SDS011;52423;43.512;5.220;2024-02-15T03:27:35;5.70;;;3.80;;
65706;SDS011;52423;43.512;5.220;2024-02-15T03:30:02;4.82;;;2.92;;
65706;SDS011;52423;43.512;5.220;2024-02-15T03:32:29;6.32;;;3.25;;
65706;SDS011;52423;43.512;5.220;2024-02-15T03:34:55;3.80;;;2.97;;
65706;SDS011;52423;43.512;5.220;2024-02-15T03:37:20;5.10;;;3.70;;
65706;SDS011;52423;43.512;5.220;2024-02-15T03:39:46;5.85;;;3.50;;
65706;SDS011;52423;43.512;5.220;2024-02-15T03:42:12;4.82;;;3.92;;
65706;SDS011;52423;43.512;5.220;2024-02-15T03:44:37;4.47;;;3.22;;
65706;SDS011;52423;43.512;5.220;2024-02-15T03:47:03;3.45;;;2.78;;
65706;SDS011;52423;43.512;5.220;2024-02-15T03:49:30;4.55;;;2.83;;
65706;SDS011;52423;43.512;5.220;2024-02-15T03:51:56;4.90;;;3.15;;
65706;SDS011;52423;43.512;5.220;2024-02-15T03:54:24;3.83;;;3.40;;
65706;SDS011;52423;43.512;5.220;2024-02-15T03:56:50;5.90;;;5.30;;
65706;SDS011;52423;43.512;5.220;2024-02-15T03:59:19;4.32;;;4.00;;
65706;SDS011;52423;43.512;5.220;2024-02-15T04:01:51;5.65;;;5.18;;
65706;SDS011;52423;43.512;5.220;2024-02-15T04:04:19;7.85;;;4.20;;
65706;SDS011;52423;43.512;5.220;2024-02-15T04:06:48;5.43;;;2.42;;
65706;SDS011;52423;43.512;5.220;2024-02-15T04:09:14;3.97;;;3.65;;
65706;SDS011;52423;43.512;5.220;2024-02-15T04:11:40;7.45;;;6.75;;
65706;SDS011;52423;43.512;5.220;2024-02-15T04:14:06;4.15;;;3.75;;
65706;SDS011;52423;43.512;5.220;2024-02-15T04:16:31;4.18;;;3.88;;
65706;SDS011;52423;43.512;5.220;2024-02-15T04:18:58;4.25;;;3.95;;
65706;SDS011;52423;43.512;5.220;2024-02-15T04:21:24;3.90;;;3.40;;
65706;SDS011;52423;43.512;5.220;2024-02-15T04:23:49;3.85;;;3.55;;
65706;SDS011;52423;43.512;5.220;2024-02-15T04:26:16;4.10;;;2.38;;
65706;SDS011;52423;43.512;5.220;2024-02-15T04:28:44;6.18;;;5.40;;
65706;SDS011;52423;43.512;5.220;2024-02-15T04:31:12;4.90;;;4.50;;
65706;SDS011;52423;43.512;5.220;2024-02-15T04:33:37;4.18;;;3.83;;
65706;SDS011;52423;43.512;5.220;2024-02-15T04:36:04;4.18;;;3.13;;
65706;SDS011;52423;43.512;5.220;2024-02-15T04:38:31;5.68;;;3.78;;
65706;SDS011;52423;43.512;5.220;2024-02-15T04:40:59;5.18;;;4.68;;
65706;SDS011;52423;43.512;5.220;2024-02-15T04:43:25;4.13;;;3.72;;
65706;SDS011;52423;43.512;5.220;2024-02-15T04:45:51;4.47;;;3.63;;
65706;SDS011;52423;43.512;5.220;2024-02-15T04:48:16;5.82;;;2.42;;
65706;SDS011;52423;43.512;5.220;2024-02-15T04:50:44;3.78;;;3.35;;
65706;SDS011;52423;43.512;5.220;2024-02-15T04:53:10;3.47;;;3.17;;
65706;SDS011;52423;43.512;5.220;2024-02-15T04:55:36;3.58;;;3.28;;
65706;SDS011;52423;43.512;5.220;2024-02-15T04:58:01;6.93;;;6.15;;
65706;SDS011;52423;43.512;5.220;2024-02-15T05:00:27;4.35;;;4.05;;
65706;SDS011;52423;43.512;5.220;2024-02-15T05:02:53;5.80;;;5.30;;
65706;SDS011;52423;43.512;5.220;2024-02-15T05:05:19;5.90;;;5.32;;
65706;SDS011;52423;43.512;5.220;2024-02-15T05:07:45;4.22;;;3.92;;
65706;SDS011;52423;43.512;5.220;2024-02-15T05:10:10;4.25;;;3.90;;
65706;SDS011;52423;43.512;5.220;2024-02-15T05:12:39;3.88;;;3.58;;
65706;SDS011;52423;43.512;5.220;2024-02-15T05:15:13;3.45;;;3.00;;
65706;SDS011;52423;43.512;5.220;2024-02-15T05:20:08;2.30;;;1.90;;
65706;SDS011;52423;43.512;5.220;2024-02-15T05:22:36;3.08;;;2.78;;
65706;SDS011;52423;43.512;5.220;2024-02-15T05:25:04;5.15;;;3.45;;
65706;SDS011;52423;43.512;5.220;2024-02-15T05:27:30;3.92;;;3.63;;
65706;SDS011;52423;43.512;5.220;2024-02-15T05:29:56;3.25;;;3.05;;
65706;SDS011;52423;43.512;5.220;2024-02-15T05:32:22;3.58;;;3.28;;
65706;SDS011;52423;43.512;5.220;2024-02-15T05:34:47;4.10;;;3.75;;
65706;SDS011;52423;43.512;5.220;2024-02-15T05:37:13;6.40;;;5.82;;
65706;SDS011;52423;43.512;5.220;2024-02-15T05:39:41;4.50;;;3.38;;
65706;SDS011;52423;43.512;5.220;2024-02-15T05:42:06;6.03;;;5.55;;
65706;SDS011;52423;43.512;5.220;2024-02-15T05:44:32;5.60;;;3.65;;
65706;SDS011;52423;43.512;5.220;2024-02-15T05:46:59;4.78;;;4.43;;
65706;SDS011;52423;43.512;5.220;2024-02-15T05:49:25;3.80;;;3.42;;
65706;SDS011;52423;43.512;5.220;2024-02-15T05:51:51;4.38;;;3.10;;
65706;SDS011;52423;43.512;5.220;2024-02-15T05:54:18;6.07;;;4.20;;
65706;SDS011;52423;43.512;5.220;2024-02-15T05:56:45;3.38;;;3.08;;
65706;SDS011;52423;43.512;5.220;2024-02-15T05:59:16;3.65;;;2.95;;
65706;SDS011;52423;43.512;5.220;2024-02-15T06:01:41;4.95;;;4.47;;
65706;SDS011;52423;43.512;5.220;2024-02-15T06:04:07;4.68;;;4.28;;
65706;SDS011;52423;43.512;5.220;2024-02-15T06:06:36;4.45;;;3.42;;
65706;SDS011;52423;43.512;5.220;2024-02-15T06:09:03;3.65;;;3.35;;
65706;SDS011;52423;43.512;5.220;2024-02-15T06:11:29;4.55;;;4.25;;
65706;SDS011;52423;43.512;5.220;2024-02-15T06:13:55;4.82;;;4.43;;
65706;SDS011;52423;43.512;5.220;2024-02-15T06:16:20;4.50;;;2.80;;
65706;SDS011;52423;43.512;5.220;2024-02-15T06:18:46;4.13;;;3.83;;
65706;SDS011;52423;43.512;5.220;2024-02-15T06:21:13;4.90;;;4.55;;
65706;SDS011;52423;43.512;5.220;2024-02-15T06:23:38;3.83;;;3.53;;
65706;SDS011;52423;43.512;5.220;2024-02-15T06:26:04;3.88;;;3.58;;
65706;SDS011;52423;43.512;5.220;2024-02-15T06:28:29;4.72;;;4.32;;
65706;SDS011;52423;43.512;5.220;2024-02-15T06:31:13;3.90;;;3.60;;
65706;SDS011;52423;43.512;5.220;2024-02-15T06:33:58;2.88;;;2.67;;
65706;SDS011;52423;43.512;5.220;2024-02-15T06:36:46;4.07;;;3.85;;
65706;SDS011;52423;43.512;5.220;2024-02-15T06:39:31;3.95;;;3.65;;
65706;SDS011;52423;43.512;5.220;2024-02-15T06:42:05;3.45;;;3.25;;
65706;SDS011;52423;43.512;5.220;2024-02-15T06:44:31;3.78;;;3.40;;
65706;SDS011;52423;43.512;5.220;2024-02-15T06:46:57;3.67;;;3.45;;
65706;SDS011;52423;43.512;5.220;2024-02-15T06:49:22;3.33;;;3.05;;
65706;SDS011;52423;43.512;5.220;2024-02-15T06:51:51;3.67;;;3.42;;
65706;SDS011;52423;43.512;5.220;2024-02-15T06:54:17;4.30;;;4.00;;
65706;SDS011;52423;43.512;5.220;2024-02-15T06:56:43;4.75;;;4.10;;
65706;SDS011;52423;43.512;5.220;2024-02-15T06:59:11;2.95;;;2.75;;
65706;SDS011;52423;43.512;5.220;2024-02-15T07:01:38;2.78;;;2.25;;
65706;SDS011;52423;43.512;5.220;2024-02-15T07:04:04;3.42;;;3.22;;
65706;SDS011;52423;43.512;5.220;2024-02-15T07:06:29;4.15;;;3.83;;
65706;SDS011;52423;43.512;5.220;2024-02-15T07:08:56;4.32;;;4.00;;
65706;SDS011;52423;43.512;5.220;2024-02-15T07:11:22;5.80;;;3.70;;
65706;SDS011;52423;43.512;5.220;2024-02-15T07:13:48;3.47;;;3.28;;
65706;SDS011;52423;43.512;5.220;2024-02-15T07:16:13;3.10;;;2.05;;
65706;SDS011;52423;43.512;5.220;2024-02-15T07:18:40;2.85;;;2.65;;
65706;SDS011;52423;43.512;5.220;2024-02-15T07:21:06;3.10;;;2.38;;
65706;SDS011;52423;43.512;5.220;2024-02-15T07:23:36;4.88;;;4.47;;
65706;SDS011;52423;43.512;5.220;2024-02-15T07:26:01;3.45;;;3.17;;
65706;SDS011;52423;43.512;5.220;2024-02-15T07:28:28;3.60;;;3.30;;
65706;SDS011;52423;43.512;5.220;2024-02-15T07:30:55;5.43;;;5.03;;
65706;SDS011;52423;43.512;5.220;2024-02-15T07:33:21;3.45;;;2.42;;
65706;SDS011;52423;43.512;5.220;2024-02-15T07:35:48;5.22;;;2.88;;
65706;SDS011;52423;43.512;5.220;2024-02-15T07:38:17;4.25;;;3.95;;
65706;SDS011;52423;43.512;5.220;2024-02-15T07:40:42;4.32;;;3.15;;
65706;SDS011;52423;43.512;5.220;2024-02-15T07:43:09;4.30;;;4.00;;
65706;SDS011;52423;43.512;5.220;2024-02-15T07:45:35;4.93;;;4.55;;
65706;SDS011;52423;43.512;5.220;2024-02-15T07:48:02;4.10;;;3.80;;
65706;SDS011;52423;43.512;5.220;2024-02-15T07:50:29;3.50;;;3.25;;
65706;SDS011;52423;43.512;5.220;2024-02-15T07:52:55;3.85;;;3.40;;
65706;SDS011;52423;43.512;5.220;2024-02-15T07:55:21;5.47;;;5.28;;
65706;SDS011;52423;43.512;5.220;2024-02-15T07:57:46;4.80;;;4.60;;
65706;SDS011;52423;43.512;5.220;2024-02-15T08:00:13;6.78;;;6.25;;
65706;SDS011;52423;43.512;5.220;2024-02-15T08:02:41;4.45;;;4.18;;
65706;SDS011;52423;43.512;5.220;2024-02-15T08:05:10;4.70;;;4.38;;
65706;SDS011;52423;43.512;5.220;2024-02-15T08:07:45;4.05;;;3.75;;
65706;SDS011;52423;43.512;5.220;2024-02-15T08:10:12;4.07;;;3.80;;
65706;SDS011;52423;43.512;5.220;2024-02-15T08:12:39;3.75;;;3.45;;
65706;SDS011;52423;43.512;5.220;2024-02-15T08:15:08;2.55;;;2.03;;
65706;SDS011;52423;43.512;5.220;2024-02-15T08:17:38;3.97;;;3.67;;
65706;SDS011;52423;43.512;5.220;2024-02-15T08:20:05;5.22;;;4.30;;
65706;SDS011;52423;43.512;5.220;2024-02-15T08:22:38;3.90;;;3.60;;
65706;SDS011;52423;43.512;5.220;2024-02-15T08:25:13;4.30;;;4.10;;
65706;SDS011;52423;43.512;5.220;2024-02-15T08:27:41;3.00;;;2.55;;
65706;SDS011;52423;43.512;5.220;2024-02-15T08:30:09;3.33;;;3.17;;
65706;SDS011;52423;43.512;5.220;2024-02-15T08:32:36;3.22;;;3.00;;
65706;SDS011;52423;43.512;5.220;2024-02-15T08:35:02;4.70;;;4.47;;
65706;SDS011;52423;43.512;5.220;2024-02-15T08:37:29;4.47;;;4.15;;
65706;SDS011;52423;43.512;5.220;2024-02-15T08:39:56;4.20;;;3.15;;
65706;SDS011;52423;43.512;5.220;2024-02-15T08:42:22;5.80;;;5.40;;
65706;SDS011;52423;43.512;5.220;2024-02-15T08:44:47;5.68;;;5.18;;
65706;SDS011;52423;43.512;5.220;2024-02-15T08:47:13;4.20;;;3.92;;
65706;SDS011;52423;43.512;5.220;2024-02-15T08:49:39;4.28;;;4.00;;
65706;SDS011;52423;43.512;5.220;2024-02-15T08:52:05;4.20;;;3.80;;
65706;SDS011;52423;43.512;5.220;2024-02-15T08:54:32;3.65;;;3.35;;
65706;SDS011;52423;43.512;5.220;2024-02-15T08:56:58;6.03;;;5.50;;
65706;SDS011;52423;43.512;5.220;2024-02-15T08:59:24;4.53;;;4.22;;
65706;SDS011;52423;43.512;5.220;2024-02-15T09:01:52;4.07;;;3.58;;
65706;SDS011;52423;43.512;5.220;2024-02-15T09:04:19;4.68;;;4.38;;
65706;SDS011;52423;43.512;5.220;2024-02-15T09:06:44;3.42;;;3.22;;
65706;SDS011;52423;43.512;5.220;2024-02-15T09:09:10;3.67;;;3.35;;
65706;SDS011;52423;43.512;5.220;2024-02-15T09:11:35;4.82;;;4.47;;
65706;SDS011;52423;43.512;5.220;2024-02-15T09:14:00;3.95;;;3.55;;
65706;SDS011;52423;43.512;5.220;2024-02-15T09:16:26;4.63;;;3.13;;
65706;SDS011;52423;43.512;5.220;2024-02-15T09:18:51;4.80;;;3.97;;
65706;SDS011;52423;43.512;5.220;2024-02-15T09:21:17;3.45;;;3.15;;
65706;SDS011;52423;43.512;5.220;2024-02-15T09:23:42;3.35;;;3.05;;
65706;SDS011;52423;43.512;5.220;2024-02-15T09:26:08;4.68;;;3.42;;
65706;SDS011;52423;43.512;5.220;2024-02-15T09:28:35;4.35;;;3.13;;
65706;SDS011;52423;43.512;5.220;2024-02-15T09:31:00;3.67;;;2.40;;
65706;SDS011;52423;43.512;5.220;2024-02-15T09:33:26;4.10;;;3.80;;
65706;SDS011;52423;43.512;5.220;2024-02-15T09:35:52;3.92;;;3.63;;
65706;SDS011;52423;43.512;5.220;2024-02-15T09:38:20;3.85;;;3.55;;
65706;SDS011;52423;43.512;5.220;2024-02-15T09:40:49;3.65;;;3.35;;
65706;SDS011;52423;43.512;5.220;2024-02-15T09:43:15;5.40;;;5.05;;
65706;SDS011;52423;43.512;5.220;2024-02-15T09:45:41;4.28;;;3.22;;
65706;SDS011;52423;43.512;5.220;2024-02-15T09:48:06;4.88;;;4.47;;
65706;SDS011;52423;43.512;5.220;2024-02-15T09:50:35;6.25;;;4.93;;
65706;SDS011;52423;43.512;5.220;2024-02-15T09:57:58;4.85;;;4.55;;
65706;SDS011;52423;43.512;5.220;2024-02-15T10:00:24;5.45;;;3.95;;
65706;SDS011;52423;43.512;5.220;2024-02-15T10:02:50;3.13;;;2.85;;
65706;SDS011;52423;43.512;5.220;2024-02-15T10:05:20;4.30;;;3.85;;
65706;SDS011;52423;43.512;5.220;2024-02-15T10:07:48;4.20;;;3.45;;
65706;SDS011;52423;43.512;5.220;2024-02-15T10:10:23;3.33;;;3.13;;
65706;SDS011;52423;43.512;5.220;2024-02-15T10:12:50;3.25;;;2.95;;
65706;SDS011;52423;43.512;5.220;2024-02-15T10:15:34;4.75;;;4.10;;
65706;SDS011;52423;43.512;5.220;2024-02-15T10:18:09;6.05;;;4.50;;
65706;SDS011;52423;43.512;5.220;2024-02-15T10:20:39;4.05;;;3.63;;
65706;SDS011;52423;43.512;5.220;2024-02-15T10:23:12;2.42;;;2.25;;
65706;SDS011;52423;43.512;5.220;2024-02-15T10:25:42;3.38;;;3.10;;
65706;SDS011;52423;43.512;5.220;2024-02-15T10:28:08;5.00;;;3.20;;
65706;SDS011;52423;43.512;5.220;2024-02-15T10:33:18;3.65;;;3.38;;
65706;SDS011;52423;43.512;5.220;2024-02-15T10:35:46;5.50;;;4.03;;
65706;SDS011;52423;43.512;5.220;2024-02-15T10:38:12;4.60;;;4.22;;
65706;SDS011;52423;43.512;5.220;2024-02-15T10:40:40;4.53;;;4.13;;
65706;SDS011;52423;43.512;5.220;2024-02-15T10:43:07;4.78;;;3.75;;
65706;SDS011;52423;43.512;5.220;2024-02-15T10:45:37;3.22;;;2.75;;
65706;SDS011;52423;43.512;5.220;2024-02-15T10:48:05;4.13;;;3.70;;
65706;SDS011;52423;43.512;5.220;2024-02-15T10:50:31;7.85;;;4.25;;
65706;SDS011;52423;43.512;5.220;2024-02-15T10:52:57;3.88;;;3.58;;
65706;SDS011;52423;43.512;5.220;2024-02-15T10:58:19;5.68;;;2.15;;
65706;SDS011;52423;43.512;5.220;2024-02-15T11:00:48;4.18;;;2.40;;
65706;SDS011;52423;43.512;5.220;2024-02-15T11:03:19;3.67;;;1.92;;
65706;SDS011;52423;43.512;5.220;2024-02-15T11:08:17;5.07;;;3.22;;
65706;SDS011;52423;43.512;5.220;2024-02-15T11:10:43;4.75;;;4.47;;
65706;SDS011;52423;43.512;5.220;2024-02-15T11:13:09;6.40;;;4.90;;
65706;SDS011;52423;43.512;5.220;2024-02-15T11:18:00;4.05;;;3.63;;
65706;SDS011;52423;43.512;5.220;2024-02-15T11:22:57;5.78;;;5.35;;
65706;SDS011;52423;43.512;5.220;2024-02-15T11:25:37;3.40;;;3.05;;
65706;SDS011;52423;43.512;5.220;2024-02-15T11:38:32;3.88;;;3.17;;
65706;SDS011;52423;43.512;5.220;2024-02-15T11:41:00;2.67;;;1.42;;
65706;SDS011;52423;43.512;5.220;2024-02-15T11:43:45;3.58;;;3.05;;
65706;SDS011;52423;43.512;5.220;2024-02-15T11:46:20;3.75;;;3.45;;
65706;SDS011;52423;43.512;5.220;2024-02-15T11:48:50;3.22;;;2.92;;
65706;SDS011;52423;43.512;5.220;2024-02-15T11:51:31;5.15;;;4.75;;
65706;SDS011;52423;43.512;5.220;2024-02-15T11:54:11;3.58;;;3.35;;
65706;SDS011;52423;43.512;5.220;2024-02-15T11:59:08;3.47;;;2.92;;
65706;SDS011;52423;43.512;5.220;2024-02-15T12:01:37;4.00;;;3.70;;
65706;SDS011;52423;43.512;5.220;2024-02-15T12:04:21;4.57;;;3.30;;
65706;SDS011;52423;43.512;5.220;2024-02-15T12:07:06;3.35;;;3.08;;
65706;SDS011;52423;43.512;5.220;2024-02-15T12:09:50;3.70;;;3.35;;
65706;SDS011;52423;43.512;5.220;2024-02-15T12:12:33;5.18;;;4.70;;
65706;SDS011;52423;43.512;5.220;2024-02-15T12:15:17;4.53;;;3.58;;
65706;SDS011;52423;43.512;5.220;2024-02-15T12:18:15;4.07;;;3.80;;
65706;SDS011;52423;43.512;5.220;2024-02-15T12:21:01;5.95;;;4.70;;
65706;SDS011;52423;43.512;5.220;2024-02-15T12:23:27;4.22;;;2.75;;
65706;SDS011;52423;43.512;5.220;2024-02-15T12:25:53;6.55;;;3.28;;
65706;SDS011;52423;43.512;5.220;2024-02-15T12:28:19;4.90;;;3.38;;
65706;SDS011;52423;43.512;5.220;2024-02-15T12:30:44;5.57;;;2.88;;
65706;SDS011;52423;43.512;5.220;2024-02-15T12:33:11;5.47;;;5.03;;
65706;SDS011;52423;43.512;5.220;2024-02-15T12:35:44;3.00;;;2.70;;
65706;SDS011;52423;43.512;5.220;2024-02-15T12:38:09;4.80;;;4.38;;
65706;SDS011;52423;43.512;5.220;2024-02-15T12:40:41;5.20;;;4.70;;
65706;SDS011;52423;43.512;5.220;2024-02-15T12:43:07;4.97;;;4.57;;
65706;SDS011;52423;43.512;5.220;2024-02-15T12:45:37;5.65;;;2.95;;
65706;SDS011;52423;43.512;5.220;2024-02-15T12:48:04;5.38;;;5.07;;
65706;SDS011;52423;43.512;5.220;2024-02-15T12:50:30;3.88;;;2.20;;
65706;SDS011;52423;43.512;5.220;2024-02-15T12:52:56;3.65;;;3.35;;
65706;SDS011;52423;43.512;5.220;2024-02-15T12:55:31;4.35;;;3.95;;
65706;SDS011;52423;43.512;5.220;2024-02-15T12:58:00;3.70;;;3.45;;
65706;SDS011;52423;43.512;5.220;2024-02-15T13:00:29;4.53;;;4.15;;
65706;SDS011;52423;43.512;5.220;2024-02-15T13:02:58;4.20;;;2.78;;
65706;SDS011;52423;43.512;5.220;2024-02-15T13:05:25;3.50;;;3.10;;
65706;SDS011;52423;43.512;5.220;2024-02-15T13:07:52;5.18;;;3.08;;
65706;SDS011;52423;43.512;5.220;2024-02-15T13:10:20;3.67;;;2.40;;
65706;SDS011;52423;43.512;5.220;2024-02-15T13:12:46;4.07;;;3.65;;
65706;SDS011;52423;43.512;5.220;2024-02-15T13:15:12;6.72;;;5.50;;
65706;SDS011;52423;43.512;5.220;2024-02-15T13:17:49;7.20;;;6.50;;
65706;SDS011;52423;43.512;5.220;2024-02-15T13:20:16;7.50;;;4.40;;
65706;SDS011;52423;43.512;5.220;2024-02-15T13:22:45;6.13;;;4.82;;
65706;SDS011;52423;43.512;5.220;2024-02-15T13:25:14;5.50;;;5.03;;
65706;SDS011;52423;43.512;5.220;2024-02-15T13:27:42;3.58;;;1.80;;
65706;SDS011;52423;43.512;5.220;2024-02-15T13:30:08;3.38;;;3.00;;
65706;SDS011;52423;43.512;5.220;2024-02-15T13:32:35;4.75;;;3.80;;
65706;SDS011;52423;43.512;5.220;2024-02-15T13:35:02;4.63;;;2.67;;
65706;SDS011;52423;43.512;5.220;2024-02-15T13:37:37;2.88;;;2.58;;
65706;SDS011;52423;43.512;5.220;2024-02-15T13:40:04;5.15;;;4.70;;
65706;SDS011;52423;43.512;5.220;2024-02-15T13:42:40;6.40;;;2.55;;
65706;SDS011;52423;43.512;5.220;2024-02-15T13:45:14;4.88;;;2.55;;
65706;SDS011;52423;43.512;5.220;2024-02-15T13:47:40;4.63;;;2.10;;
65706;SDS011;52423;43.512;5.220;2024-02-15T13:50:06;3.10;;;2.90;;
65706;SDS011;52423;43.512;5.220;2024-02-15T13:52:33;4.90;;;3.05;;
65706;SDS011;52423;43.512;5.220;2024-02-15T13:54:59;3.55;;;2.08;;
65706;SDS011;52423;43.512;5.220;2024-02-15T13:57:25;2.50;;;2.35;;
65706;SDS011;52423;43.512;5.220;2024-02-15T13:59:51;4.75;;;2.67;;
65706;SDS011;52423;43.512;5.220;2024-02-15T14:02:16;3.58;;;3.25;;
65706;SDS011;52423;43.512;5.220;2024-02-15T14:04:42;5.25;;;2.58;;
65706;SDS011;52423;43.512;5.220;2024-02-15T14:07:08;2.17;;;1.92;;
65706;SDS011;52423;43.512;5.220;2024-02-15T14:09:33;3.90;;;2.10;;
65706;SDS011;52423;43.512;5.220;2024-02-15T14:11:59;2.20;;;2.05;;
65706;SDS011;52423;43.512;5.220;2024-02-15T14:14:26;3.42;;;2.40;;
65706;SDS011;52423;43.512;5.220;2024-02-15T14:16:52;3.83;;;3.53;;
65706;SDS011;52423;43.512;5.220;2024-02-15T14:19:17;2.85;;;1.80;;
65706;SDS011;52423;43.512;5.220;2024-02-15T14:21:43;2.92;;;1.17;;
65706;SDS011;52423;43.512;5.220;2024-02-15T14:24:09;2.67;;;2.25;;
65706;SDS011;52423;43.512;5.220;2024-02-15T14:26:35;4.70;;;1.95;;
65706;SDS011;52423;43.512;5.220;2024-02-15T14:29:00;1.65;;;0.88;;
65706;SDS011;52423;43.512;5.220;2024-02-15T14:31:26;2.70;;;2.47;;
65706;SDS011;52423;43.512;5.220;2024-02-15T14:34:10;2.75;;;1.92;;
65706;SDS011;52423;43.512;5.220;2024-02-15T14:36:36;3.70;;;2.47;;
65706;SDS011;52423;43.512;5.220;2024-02-15T14:39:01;2.88;;;2.22;;
65706;SDS011;52423;43.512;5.220;2024-02-15T14:41:27;2.53;;;2.10;;
65706;SDS011;52423;43.512;5.220;2024-02-15T14:43:53;1.75;;;0.88;;
65706;SDS011;52423;43.512;5.220;2024-02-15T14:46:19;1.98;;;1.75;;
65706;SDS011;52423;43.512;5.220;2024-02-15T14:48:45;2.65;;;2.45;;
65706;SDS011;52423;43.512;5.220;2024-02-15T14:51:14;1.85;;;1.75;;
65706;SDS011;52423;43.512;5.220;2024-02-15T14:56:06;3.42;;;3.13;;
65706;SDS011;52423;43.512;5.220;2024-02-15T14:58:32;2.95;;;2.85;;
65706;SDS011;52423;43.512;5.220;2024-02-15T15:00:58;2.33;;;1.65;;
65706;SDS011;52423;43.512;5.220;2024-02-15T15:03:23;4.95;;;2.25;;
65706;SDS011;52423;43.512;5.220;2024-02-15T15:05:49;2.78;;;2.13;;
65706;SDS011;52423;43.512;5.220;2024-02-15T15:08:32;2.10;;;1.63;;
65706;SDS011;52423;43.512;5.220;2024-02-15T15:11:16;4.38;;;2.15;;
65706;SDS011;52423;43.512;5.220;2024-02-15T15:14:01;3.08;;;2.55;;
65706;SDS011;52423;43.512;5.220;2024-02-15T15:16:29;3.78;;;2.33;;
65706;SDS011;52423;43.512;5.220;2024-02-15T15:18:55;3.00;;;2.58;;
65706;SDS011;52423;43.512;5.220;2024-02-15T15:21:21;1.95;;;1.38;;
65706;SDS011;52423;43.512;5.220;2024-02-15T15:23:48;3.45;;;1.92;;
65706;SDS011;52423;43.512;5.220;2024-02-15T15:26:20;3.33;;;3.08;;
65706;SDS011;52423;43.512;5.220;2024-02-15T15:28:46;1.90;;;1.73;;